メインページ
METAR-TAF:

METAR-TAF

空港 :

メルボルン空港

メルボルン, オーストラリア

緯度: 37-40-24S, 経度: 144-50-36E, 海抜: 132m

現時点の気象観測

当レポートは32分前の12:00(UTC)に作成
西/南西の風 3kt
気温 11°C
湿度 87%
気圧 1028 hPa
視程10km以上
高度1700ftの雲はほとんどない
高度3100ftの千切れ雲あり

METAR: YMML 241200Z 25003KT 9999 FEW017 BKN031 11/09 Q1028 RF00.0/000.0

時間: 22:32 (12:32 UTC)

予報

当レポートは1時間9分前の11:23(UTC)に作成
予報は24日の 12時(UTC)から 25日の 18時(UTC)まで有効
南西の風 5kt
視程10km以上
高度1500ftの雲は散在している
高度2000ftの千切れ雲あり
24日の 1500時(UTC)から
西/南西の風 5kt
視程10km以上
高度1000ftの雲は散在している
24日の 1800時(UTC)から
西/北西の風 4kt
視程10km以上
高度800ftの千切れ雲あり
24日の 23時(UTC)から 25日の 01時(UTC)まで徐々に
の風 5kt
視程10km以上
高度1500ftの雲はほとんどない
25日の 0400時(UTC)から
南東の風 6kt
視程10km以上
1,500メートル以下は雲なし、積乱雲なし
25日の 1100時(UTC)から
の風 6kt
視程10km以上
1,500メートル以下は雲なし、積乱雲なし
確率 30%
24日の 15時(UTC)から 24日の 23時(UTC)まで
視程: 0300m
高度200ftの千切れ雲あり
霧,

TAF: YMML 241123Z 2412/2518 23005KT 9999 SCT015 BKN020 FM241500 25005KT 9999 SCT010 FM241800 30004KT 9999 BKN008 BECMG 2423/2501 36005KT 9999 FEW015 FM250400 14006KT CAVOK FM251100 01006KT CAVOK PROB30 2415/2423 0300 FG BKN002

4,000以上の空港の気象観測と天気予報(METAR報とTAF報)

利用可能な観測所は地図上に黄色い丸と赤い丸で示す。

丸の上にカーソルを重ねると観測所名を参照できる。

次にクリックすると気象観測と天気予報を参照できる。

マップの切り替え:黒色「×」印の緑ボタンをクリックして拡大、「-」印の緑ボタンをクリックして縮小、緑色の三角印をクリックして隣りの地図に切り替え


METAR-TAF: